Time;durP1;ratioP1;P1;durP2;ratioP2;P2;SDS_P1;SDS_P2;PMS_P1;PMS_P2;Temp;Humidity;BMP_temperature;BMP_pressure;BME280_temperature;BME280_humidity;BME280_pressure;Samples;Min_cycle;Max_cycle;Signal;HPM_P1;HPM_P2
2022/11/06 00:01:23;;;;;;;0.28;0.28;;;10.30;1.00;;;;;;5028551;28;20046;-77
2022/11/06 00:03:53;;;;;;;2.05;1.02;;;10.30;1.00;;;;;;5027439;28;20046;-78
2022/11/06 00:09:06;;;;;;;0.45;0.40;;;10.30;34.00;;;;;;5027442;28;20053;-78
2022/11/06 00:11:32;;;;;;;0.43;0.43;;;10.20;99.90;;;;;;5010237;28;20049;-78
2022/11/06 00:14:00;;;;;;;8.93;2.05;;;10.10;99.90;;;;;;5009776;28;20075;-79
2022/11/06 00:16:25;;;;;;;0.40;0.40;;;10.00;1.00;;;;;;5010496;28;20053;-78
2022/11/06 00:18:51;;;;;;;0.40;0.40;;;9.80;99.90;;;;;;5027441;28;20250;-79
2022/11/06 00:21:20;;;;;;;2.03;1.83;;;9.70;99.90;;;;;;5010065;28;20076;-78
2022/11/06 00:23:47;;;;;;;0.00;0.00;;;9.60;99.90;;;;;;5026473;28;20542;-77
2022/11/06 00:26:19;;;;;;;1.35;1.25;;;9.50;99.90;;;;;;5027733;28;20052;-78
2022/11/06 00:28:46;;;;;;;0.80;0.70;;;9.60;99.90;;;;;;5028024;28;20100;-76
2022/11/06 00:31:17;;;;;;;0.98;0.85;;;9.50;99.90;;;;;;5028132;28;20059;-79
2022/11/06 00:33:43;;;;;;;13.98;2.45;;;9.40;1.00;;;;;;5011556;28;20061;-78
2022/11/06 00:36:12;;;;;;;0.40;0.32;;;9.40;1.00;;;;;;5011211;28;20061;-80
2022/11/06 00:38:38;;;;;;;0.00;0.00;;;9.30;1.00;;;;;;5029043;28;20053;-78
2022/11/06 00:41:06;;;;;;;0.85;0.85;;;9.30;6.10;;;;;;5027487;28;20462;-79
2022/11/06 00:43:32;;;;;;;1.00;0.70;;;9.30;20.50;;;;;;5027764;28;20045;-78
2022/11/06 00:46:06;;;;;;;0.13;0.13;;;8.60;96.20;;;;;;5027956;28;20037;-78
2022/11/06 00:48:36;;;;;;;1.80;0.75;;;9.20;93.50;;;;;;5027098;28;20037;-79
2022/11/06 00:51:10;;;;;;;0.10;0.10;;;9.20;99.90;;;;;;5027584;28;20380;-79
2022/11/06 00:53:36;;;;;;;0.52;0.52;;;9.20;99.90;;;;;;5026897;28;20575;-78
2022/11/06 00:56:07;;;;;;;2.00;0.85;;;9.10;99.90;;;;;;5008819;28;20041;-79
2022/11/06 00:58:33;;;;;;;0.28;0.28;;;9.10;99.90;;;;;;5027301;28;20432;-78
2022/11/06 01:01:05;;;;;;;2.33;1.70;;;9.10;99.90;;;;;;5026009;28;20045;-77
2022/11/06 01:03:31;;;;;;;5.43;1.98;;;9.10;99.90;;;;;;5024452;28;20083;-76
2022/11/06 01:06:13;;;;;;;0.98;0.75;;;9.00;99.90;;;;;;5025604;28;20454;-75
2022/11/06 01:08:39;;;;;;;0.30;0.28;;;9.00;99.90;;;;;;5025393;28;20069;-77
2022/11/06 01:11:11;;;;;;;0.30;0.30;;;9.00;99.90;;;;;;5025138;28;20057;-78
2022/11/06 01:13:37;;;;;;;1.23;0.65;;;9.00;99.90;;;;;;5025774;28;20049;-77
2022/11/06 01:16:08;;;;;;;2.47;1.90;;;9.00;99.90;;;;;;5025682;28;20080;-77
2022/11/06 01:18:35;;;;;;;0.57;0.57;;;9.00;99.90;;;;;;5025046;28;20053;-77
2022/11/06 01:21:18;;;;;;;0.05;0.05;;;9.00;99.90;;;;;;5025049;28;20045;-77
2022/11/06 01:23:45;;;;;;;0.77;0.77;;;9.00;99.90;;;;;;5025249;28;20059;-77
2022/11/06 01:26:12;;;;;;;3.00;0.90;;;9.00;99.90;;;;;;5024568;28;20079;-77
2022/11/06 01:28:39;;;;;;;0.30;0.20;;;9.10;99.90;;;;;;5006942;28;20049;-77
2022/11/06 01:31:12;;;;;;;0.63;0.63;;;9.10;99.90;;;;;;5024399;28;20060;-77
2022/11/06 01:33:38;;;;;;;0.52;0.52;;;9.00;99.90;;;;;;5024726;28;20049;-77
2022/11/06 01:36:04;;;;;;;0.63;0.63;;;9.00;99.90;;;;;;5024945;28;20465;-76
2022/11/06 01:38:30;;;;;;;0.00;0.00;;;9.00;99.90;;;;;;5024735;28;20095;-76
2022/11/06 01:40:56;;;;;;;0.65;0.65;;;9.00;99.90;;;;;;5024831;28;20497;-77
2022/11/06 01:43:44;;;;;;;0.32;0.32;;;9.10;99.90;;;;;;5024364;28;20446;-76
2022/11/06 01:46:10;;;;;;;1.85;0.52;;;9.00;99.90;;;;;;5025227;28;20049;-78
2022/11/06 01:48:38;;;;;;;0.52;0.40;;;9.00;99.90;;;;;;5024475;28;20045;-77
2022/11/06 01:51:05;;;;;;;0.68;0.52;;;9.00;99.90;;;;;;5024702;28;20123;-76
2022/11/06 01:53:31;;;;;;;0.38;0.38;;;9.10;99.90;;;;;;5024594;28;20476;-78
2022/11/06 01:56:00;;;;;;;0.30;0.30;;;9.00;99.90;;;;;;5024890;28;20077;-76
2022/11/06 01:58:30;;;;;;;2.38;1.48;;;9.00;99.90;;;;;;5024916;28;20041;-77
2022/11/06 02:00:56;;;;;;;2.25;0.60;;;9.00;99.90;;;;;;5024398;28;20053;-77
2022/11/06 02:03:22;;;;;;;2.50;1.75;;;9.00;99.90;;;;;;5006633;28;20053;-77
2022/11/06 02:05:48;;;;;;;0.35;0.20;;;9.10;99.90;;;;;;5025446;28;20053;-78
2022/11/06 02:08:18;;;;;;;1.23;0.70;;;9.00;99.90;;;;;;5024525;28;20137;-77
2022/11/06 02:10:45;;;;;;;1.52;1.10;;;9.00;99.90;;;;;;5025194;28;20418;-78
2022/11/06 02:13:44;;;;;;;0.05;0.05;;;9.00;99.90;;;;;;5008952;28;20049;-77
2022/11/06 02:16:45;;;;;;;1.40;1.05;;;9.10;99.90;;;;;;5024784;28;20064;-79
2022/11/06 02:19:32;;;;;;;0.35;0.35;;;9.00;99.90;;;;;;5026628;28;20103;-79
2022/11/06 02:22:10;;;;;;;0.20;0.20;;;9.00;99.90;;;;;;5025561;28;20407;-79
2022/11/06 02:24:53;;;;;;;1.25;1.15;;;9.00;99.90;;;;;;5025917;28;20464;-79
2022/11/06 02:27:25;;;;;;;0.75;0.68;;;9.00;99.90;;;;;;5025342;28;20056;-79
2022/11/06 02:30:03;;;;;;;0.77;0.35;;;9.00;99.90;;;;;;5025599;28;20053;-79
2022/11/06 02:32:40;;;;;;;0.15;0.15;;;9.00;99.90;;;;;;5025302;28;20049;-78
2022/11/06 02:35:37;;;;;;;1.10;0.70;;;8.90;99.90;;;;;;5026252;28;20514;-81
2022/11/06 02:38:12;;;;;;;0.30;0.30;;;8.90;99.90;;;;;;5017198;28;20064;-79
2022/11/06 02:40:49;;;;;;;0.65;0.55;;;8.90;99.90;;;;;;5025255;28;20176;-79
2022/11/06 02:43:16;;;;;;;0.40;0.40;;;8.90;99.90;;;;;;5025680;28;20437;-79
2022/11/06 02:45:52;;;;;;;1.27;0.90;;;8.90;99.90;;;;;;5025114;28;20354;-79
2022/11/06 02:48:23;;;;;;;1.23;0.60;;;8.90;99.90;;;;;;5024754;28;20081;-78
2022/11/06 02:50:51;;;;;;;0.43;0.32;;;9.00;99.90;;;;;;5025202;28;20077;-78
2022/11/06 02:53:22;;;;;;;1.45;0.50;;;8.90;99.90;;;;;;5025157;28;20602;-79
2022/11/06 02:58:27;;;;;;;1.80;1.40;;;9.00;99.90;;;;;;5051796;28;20041;-76
2022/11/06 03:01:21;;;;;;;0.22;0.22;;;9.00;99.90;;;;;;5058968;28;20040;-77
2022/11/06 03:03:52;;;;;;;1.00;0.85;;;8.90;99.90;;;;;;5070323;28;20451;-77
2022/11/06 03:06:42;;;;;;;0.75;0.68;;;8.80;99.90;;;;;;5065841;28;20762;-76
2022/11/06 03:09:19;;;;;;;10.05;0.98;;;8.90;99.90;;;;;;5070774;28;20124;-76
2022/11/06 03:11:52;;;;;;;4.43;0.50;;;8.90;99.90;;;;;;5073903;28;20048;-78
2022/11/06 03:14:31;;;;;;;1.27;1.08;;;8.90;99.90;;;;;;5072517;28;20411;-77
2022/11/06 03:17:04;;;;;;;0.40;0.38;;;8.90;99.90;;;;;;5070990;28;20053;-75
2022/11/06 03:19:41;;;;;;;2.15;1.02;;;8.90;99.90;;;;;;5052527;28;20055;-77
2022/11/06 03:22:14;;;;;;;0.40;0.40;;;8.90;99.90;;;;;;5070530;28;20087;-76
2022/11/06 03:24:47;;;;;;;1.17;0.90;;;8.90;99.90;;;;;;5069802;28;20128;-76
2022/11/06 03:27:22;;;;;;;0.20;0.20;;;8.90;99.90;;;;;;5068874;28;20139;-76
2022/11/06 03:30:01;;;;;;;0.45;0.45;;;8.80;99.90;;;;;;5069455;28;20410;-73
2022/11/06 03:32:33;;;;;;;5.47;0.98;;;8.80;99.90;;;;;;5047980;28;20063;-74
2022/11/06 03:35:09;;;;;;;0.10;0.10;;;8.80;99.90;;;;;;5049319;28;20056;-76
2022/11/06 03:37:59;;;;;;;0.68;0.65;;;8.90;99.90;;;;;;5048850;28;20059;-77
2022/11/06 03:40:28;;;;;;;0.43;0.43;;;8.80;99.90;;;;;;5048066;28;20057;-75
2022/11/06 03:42:59;;;;;;;0.93;0.73;;;8.80;99.90;;;;;;5030549;28;20059;-77
2022/11/06 03:45:26;;;;;;;0.13;0.13;;;8.80;99.90;;;;;;5032034;28;20056;-75
2022/11/06 03:48:12;;;;;;;0.15;0.15;;;8.80;99.90;;;;;;5031323;28;20128;-74
2022/11/06 03:50:53;;;;;;;10.57;1.38;;;8.80;99.90;;;;;;5032228;28;20525;-77
2022/11/06 03:53:51;;;;;;;0.98;0.63;;;8.80;99.90;;;;;;5050667;28;20049;-76
2022/11/06 03:56:25;;;;;;;0.20;0.20;;;8.80;99.90;;;;;;5046707;28;20522;-74
2022/11/06 03:58:52;;;;;;;0.98;0.88;;;8.80;99.90;;;;;;5030258;28;20076;-76
2022/11/06 04:01:33;;;;;;;1.55;0.70;;;8.80;99.90;;;;;;5029922;28;20513;-76
2022/11/06 04:04:10;;;;;;;1.35;0.55;;;8.80;99.90;;;;;;5030782;28;20072;-76
2022/11/06 04:06:39;;;;;;;1.52;1.08;;;8.80;99.90;;;;;;5030741;28;20088;-77
2022/11/06 04:14:42;;;;;;;0.05;0.05;;;8.70;99.90;;;;;;5049977;28;20465;-75
2022/11/06 04:17:11;;;;;;;1.75;1.65;;;8.80;99.90;;;;;;5049939;28;20048;-75
2022/11/06 04:19:43;;;;;;;0.05;0.05;;;8.80;99.90;;;;;;5050239;28;20040;-76
2022/11/06 04:22:09;;;;;;;1.55;1.45;;;8.80;99.90;;;;;;5050116;28;20128;-75
2022/11/06 04:27:58;;;;;;;0.52;0.52;;;8.80;99.90;;;;;;5033451;28;20045;-78
2022/11/06 04:30:26;;;;;;;0.47;0.47;;;8.80;99.90;;;;;;5051288;28;20096;-76
2022/11/06 04:33:45;;;;;;;1.10;0.68;;;9.00;99.90;;;;;;5051581;28;20045;-75
2022/11/06 04:36:31;;;;;;;3.05;1.05;;;8.90;99.90;;;;;;4989212;28;20106;-75
2022/11/06 04:39:13;;;;;;;0.10;0.10;;;8.90;99.90;;;;;;5054187;28;20708;-76
2022/11/06 04:41:39;;;;;;;7.25;1.75;;;8.80;99.90;;;;;;5053526;28;20052;-76
2022/11/06 04:44:11;;;;;;;0.32;0.30;;;8.90;99.90;;;;;;5055096;28;20059;-73
2022/11/06 04:46:48;;;;;;;2.08;1.00;;;8.90;99.90;;;;;;5056781;28;20052;-77
2022/11/06 04:49:14;;;;;;;0.30;0.30;;;8.80;99.90;;;;;;5057096;28;20455;-74
2022/11/06 04:51:43;;;;;;;0.47;0.47;;;8.80;99.90;;;;;;5055948;28;20053;-73
2022/11/06 04:54:10;;;;;;;0.75;0.30;;;8.90;99.90;;;;;;5054696;28;20560;-73
2022/11/06 04:56:36;;;;;;;0.40;0.40;;;8.80;99.90;;;;;;5056061;28;20080;-74
2022/11/06 04:59:03;;;;;;;1.25;1.15;;;8.90;99.90;;;;;;5056746;28;20488;-73
2022/11/06 05:01:30;;;;;;;0.47;0.47;;;8.90;99.90;;;;;;5055533;28;20055;-75
2022/11/06 05:03:56;;;;;;;2.65;0.95;;;8.90;99.90;;;;;;5054851;28;20134;-74
2022/11/06 05:06:22;;;;;;;1.05;1.00;;;8.90;99.90;;;;;;5056142;28;20041;-74
2022/11/06 05:08:48;;;;;;;0.57;0.57;;;8.80;99.90;;;;;;5055693;28;20041;-74
2022/11/06 05:11:13;;;;;;;0.77;0.55;;;8.90;99.90;;;;;;5055397;28;20060;-75
2022/11/06 05:13:39;;;;;;;0.32;0.32;;;8.90;99.90;;;;;;5040330;28;20060;-73
2022/11/06 05:16:05;;;;;;;0.43;0.43;;;8.80;99.90;;;;;;5057905;28;20060;-75
2022/11/06 05:18:31;;;;;;;0.20;0.20;;;8.80;99.90;;;;;;5038189;28;20044;-73
2022/11/06 05:23:45;;;;;;;0.00;0.00;;;8.90;99.90;;;;;;5058623;28;20488;-75
2022/11/06 05:26:11;;;;;;;0.10;0.10;;;8.90;99.90;;;;;;5058255;28;20076;-75
2022/11/06 05:28:37;;;;;;;0.45;0.45;;;8.90;99.90;;;;;;5056890;28;20049;-76
2022/11/06 05:31:03;;;;;;;0.55;0.35;;;8.90;99.90;;;;;;5060558;28;20055;-76
2022/11/06 05:33:30;;;;;;;0.38;0.32;;;8.80;99.90;;;;;;5059424;28;20037;-75
2022/11/06 05:35:55;;;;;;;0.73;0.70;;;8.90;99.90;;;;;;5060076;28;20401;-75
2022/11/06 05:38:21;;;;;;;0.45;0.38;;;8.80;99.90;;;;;;5059623;28;20072;-76
2022/11/06 05:40:47;;;;;;;0.10;0.10;;;8.80;99.90;;;;;;5060408;28;20135;-76
2022/11/06 05:43:12;;;;;;;0.00;0.00;;;8.80;99.90;;;;;;5061738;28;20055;-75
2022/11/06 05:45:38;;;;;;;0.35;0.35;;;8.80;99.90;;;;;;5059822;28;20043;-75
2022/11/06 05:48:04;;;;;;;1.17;1.08;;;8.80;99.90;;;;;;5058782;28;20044;-74
2022/11/06 05:50:30;;;;;;;0.28;0.25;;;8.80;99.90;;;;;;5057394;28;20115;-74
2022/11/06 05:52:55;;;;;;;0.10;0.10;;;8.90;99.90;;;;;;5056978;28;20122;-76
2022/11/06 05:55:21;;;;;;;0.10;0.10;;;8.90;99.90;;;;;;5055284;28;20521;-75
2022/11/06 05:57:47;;;;;;;0.40;0.30;;;8.90;99.90;;;;;;5056087;28;20128;-77
2022/11/06 06:00:13;;;;;;;0.77;0.77;;;9.00;99.90;;;;;;5057217;28;20084;-73
2022/11/06 06:02:39;;;;;;;0.28;0.25;;;8.90;99.90;;;;;;5055629;28;20107;-74
2022/11/06 06:05:06;;;;;;;0.22;0.22;;;8.90;99.90;;;;;;5056728;28;20076;-76
2022/11/06 06:07:32;;;;;;;0.38;0.28;;;8.90;99.90;;;;;;5055621;28;20077;-73
2022/11/06 06:09:57;;;;;;;0.30;0.20;;;8.90;99.90;;;;;;5056701;28;20033;-76
2022/11/06 06:12:25;;;;;;;4.20;1.05;;;8.90;99.90;;;;;;5038962;28;20053;-74
2022/11/06 06:14:51;;;;;;;0.88;0.10;;;8.90;99.90;;;;;;5039331;28;20105;-76
2022/11/06 06:17:17;;;;;;;0.45;0.35;;;8.90;99.90;;;;;;5054012;28;20055;-74
2022/11/06 06:19:43;;;;;;;4.32;1.02;;;8.90;99.90;;;;;;5054882;28;20464;-74
2022/11/06 06:22:09;;;;;;;0.30;0.30;;;8.80;99.90;;;;;;5055546;28;20111;-76
2022/11/06 06:24:35;;;;;;;0.00;0.00;;;8.90;99.90;;;;;;5055164;28;20057;-75
2022/11/06 06:27:01;;;;;;;0.68;0.68;;;8.90;99.90;;;;;;5039354;28;20024;-74
2022/11/06 06:29:27;;;;;;;0.17;0.17;;;8.90;99.90;;;;;;5056485;28;20187;-74
2022/11/06 06:31:52;;;;;;;2.85;1.35;;;8.90;99.90;;;;;;5057046;28;20064;-76
2022/11/06 06:34:18;;;;;;;0.20;0.20;;;10.10;99.90;;;;;;5057103;28;20037;-77
2022/11/06 06:36:47;;;;;;;5.57;1.65;;;8.90;99.90;;;;;;5053879;28;20047;-75
2022/11/06 06:39:13;;;;;;;0.38;0.30;;;8.90;99.90;;;;;;5057104;28;20044;-76
2022/11/06 06:41:38;;;;;;;0.35;0.35;;;8.90;99.90;;;;;;5055408;28;20045;-77
2022/11/06 06:44:04;;;;;;;2.08;0.85;;;8.90;99.90;;;;;;5058727;28;20102;-75
2022/11/06 06:46:30;;;;;;;0.47;0.30;;;8.90;99.90;;;;;;5056666;28;20033;-74
2022/11/06 06:48:55;;;;;;;0.00;0.00;;;9.10;99.90;;;;;;5036210;28;20075;-75
2022/11/06 06:51:21;;;;;;;1.67;0.90;;;9.00;99.90;;;;;;5056565;28;20048;-75
2022/11/06 06:53:46;;;;;;;0.00;0.00;;;9.00;99.90;;;;;;5053910;28;20044;-75
2022/11/06 06:56:12;;;;;;;0.15;0.15;;;9.10;99.90;;;;;;5056269;28;20056;-76
2022/11/06 06:58:38;;;;;;;1.08;0.63;;;9.10;99.90;;;;;;5051202;28;20191;-74
2022/11/06 07:01:04;;;;;;;0.00;0.00;;;9.50;99.90;;;;;;5037322;28;20129;-75
2022/11/06 07:03:33;;;;;;;0.00;0.00;;;9.20;99.90;;;;;;5056890;28;20076;-75
2022/11/06 07:05:59;;;;;;;0.25;0.25;;;9.30;99.90;;;;;;5056070;28;20088;-74
2022/11/06 07:08:26;;;;;;;0.32;0.28;;;9.30;99.90;;;;;;5054499;28;20049;-74
2022/11/06 07:10:51;;;;;;;1.13;0.85;;;9.30;99.90;;;;;;5053401;28;20110;-77
2022/11/06 07:13:17;;;;;;;0.50;0.50;;;9.40;99.90;;;;;;5057009;28;20045;-76
2022/11/06 07:15:43;;;;;;;18.65;1.13;;;9.40;99.90;;;;;;5054459;28;20037;-76
2022/11/06 07:18:08;;;;;;;0.40;0.40;;;9.40;99.90;;;;;;5058148;28;20128;-75
2022/11/06 07:20:34;;;;;;;0.20;0.20;;;9.50;99.90;;;;;;5057427;28;20044;-75
2022/11/06 07:23:07;;;;;;;0.10;0.10;;;9.50;99.90;;;;;;5055679;28;20044;-76
2022/11/06 07:25:33;;;;;;;0.13;0.13;;;9.50;99.90;;;;;;5052605;28;20087;-73
2022/11/06 07:28:09;;;;;;;9.07;0.68;;;9.50;99.90;;;;;;5051940;28;20264;-75
2022/11/06 07:30:35;;;;;;;0.10;0.10;;;9.70;99.90;;;;;;5052125;28;20083;-76
2022/11/06 07:33:04;;;;;;;0.73;0.73;;;9.60;99.90;;;;;;5053251;28;20052;-75
2022/11/06 07:35:31;;;;;;;0.47;0.25;;;9.70;99.90;;;;;;5050844;28;20127;-75
2022/11/06 07:37:57;;;;;;;0.03;0.03;;;9.70;99.90;;;;;;5052135;28;20045;-74
2022/11/06 07:40:23;;;;;;;0.28;0.15;;;9.70;99.90;;;;;;5053474;28;20647;-76
2022/11/06 07:42:48;;;;;;;10.27;2.33;;;10.10;99.90;;;;;;5038263;28;20653;-74
2022/11/06 07:45:14;;;;;;;0.63;0.60;;;9.80;99.90;;;;;;5053645;28;20491;-74
2022/11/06 07:47:40;;;;;;;0.28;0.28;;;9.90;99.90;;;;;;5052369;28;20044;-76
2022/11/06 07:50:06;;;;;;;0.85;0.73;;;9.90;99.90;;;;;;5035945;28;20111;-76
2022/11/06 07:52:32;;;;;;;0.00;0.00;;;10.00;97.80;;;;;;5051729;28;20077;-76
2022/11/06 07:55:01;;;;;;;0.15;0.10;;;10.10;80.90;;;;;;5051510;28;20132;-74
2022/11/06 07:57:27;;;;;;;0.20;0.20;;;10.10;26.70;;;;;;5053025;28;20084;-75
2022/11/06 07:59:53;;;;;;;0.65;0.65;;;10.00;50.50;;;;;;5040891;28;20157;-74
2022/11/06 08:02:19;;;;;;;0.30;0.20;;;9.90;99.90;;;;;;5043336;28;20045;-74
2022/11/06 08:04:45;;;;;;;0.10;0.10;;;9.80;99.90;;;;;;5042602;28;20053;-76
2022/11/06 08:07:10;;;;;;;0.00;0.00;;;9.70;99.90;;;;;;5042180;28;20577;-77
2022/11/06 08:09:39;;;;;;;1.77;0.88;;;9.70;99.90;;;;;;5032266;28;20106;-74
2022/11/06 08:12:06;;;;;;;0.35;0.35;;;9.70;99.90;;;;;;5054295;28;20044;-77
2022/11/06 08:14:32;;;;;;;0.10;0.10;;;9.70;99.90;;;;;;5059391;28;20053;-78
2022/11/06 08:16:58;;;;;;;4.43;0.90;;;9.70;99.90;;;;;;5058833;28;20056;-77
2022/11/06 08:19:26;;;;;;;17.75;1.70;;;9.70;99.90;;;;;;5058428;28;20049;-76
2022/11/06 08:21:52;;;;;;;0.03;0.03;;;9.70;99.90;;;;;;5060695;28;20159;-77
2022/11/06 08:24:18;;;;;;;0.20;0.17;;;9.80;99.90;;;;;;5060204;28;20021;-77
2022/11/06 08:26:43;;;;;;;0.13;0.13;;;9.70;99.90;;;;;;5041609;28;20079;-76
2022/11/06 08:29:09;;;;;;;0.73;0.73;;;9.80;99.90;;;;;;5059345;28;20063;-75
2022/11/06 08:31:34;;;;;;;0.73;0.60;;;9.70;99.90;;;;;;5058652;28;20366;-77
2022/11/06 08:34:00;;;;;;;0.05;0.05;;;9.70;99.90;;;;;;5060357;28;20052;-74
2022/11/06 08:36:26;;;;;;;0.03;0.03;;;9.70;99.90;;;;;;5056923;28;20037;-76
2022/11/06 08:38:51;;;;;;;0.28;0.28;;;9.70;99.90;;;;;;5057617;28;20402;-75
2022/11/06 08:41:17;;;;;;;0.43;0.40;;;9.60;99.90;;;;;;5058642;28;20076;-76
2022/11/06 08:43:43;;;;;;;0.35;0.35;;;9.70;99.90;;;;;;5057151;28;20044;-77
2022/11/06 08:46:09;;;;;;;0.22;0.10;;;9.60;99.90;;;;;;5039253;28;20043;-75
2022/11/06 08:48:35;;;;;;;3.45;1.80;;;9.60;99.90;;;;;;5049270;28;20125;-76
2022/11/06 08:51:02;;;;;;;0.28;0.28;;;9.70;99.90;;;;;;5038107;28;20129;-77
2022/11/06 08:53:28;;;;;;;1.65;0.80;;;9.70;99.90;;;;;;5037747;28;20093;-76
2022/11/06 08:55:53;;;;;;;0.10;0.10;;;9.70;99.90;;;;;;5003282;28;20072;-76
2022/11/06 08:58:19;;;;;;;0.77;0.38;;;9.80;99.90;;;;;;5039615;28;20045;-76
2022/11/06 09:00:45;;;;;;;0.00;0.00;;;9.70;99.90;;;;;;5038174;28;20057;-75
2022/11/06 09:03:13;;;;;;;0.73;0.10;;;9.70;99.90;;;;;;5038774;28;20064;-76
2022/11/06 09:05:41;;;;;;;0.00;0.00;;;9.70;99.90;;;;;;5005693;28;20104;-78
2022/11/06 09:08:07;;;;;;;0.20;0.20;;;9.70;99.90;;;;;;5036114;28;20091;-76
2022/11/06 09:10:33;;;;;;;0.00;0.00;;;9.70;99.90;;;;;;5037757;28;20060;-74
2022/11/06 09:12:59;;;;;;;3.65;0.60;;;9.70;99.90;;;;;;5036441;28;20047;-75
2022/11/06 09:15:25;;;;;;;0.15;0.10;;;9.80;99.90;;;;;;5037351;28;20030;-77
2022/11/06 09:17:51;;;;;;;3.20;0.40;;;9.90;99.90;;;;;;5037383;28;20041;-75
2022/11/06 09:20:21;;;;;;;0.10;0.10;;;9.90;99.90;;;;;;5035618;28;20068;-75
2022/11/06 09:22:47;;;;;;;0.00;0.00;;;10.00;99.90;;;;;;5036845;28;20068;-76
2022/11/06 09:25:13;;;;;;;2.08;1.85;;;10.10;99.90;;;;;;5035019;28;20033;-75
2022/11/06 09:27:44;;;;;;;0.57;0.57;;;10.30;91.00;;;;;;5038489;28;20076;-75
2022/11/06 09:30:12;;;;;;;0.20;0.17;;;10.30;99.90;;;;;;5035087;28;20053;-75
2022/11/06 09:32:43;;;;;;;0.20;0.20;;;10.50;30.70;;;;;;5036270;28;20186;-75
2022/11/06 09:35:09;;;;;;;0.77;0.57;;;10.60;1.00;;;;;;5034832;28;20045;-75
2022/11/06 09:37:35;;;;;;;1.48;0.88;;;10.70;59.40;;;;;;5017928;28;20056;-74
2022/11/06 09:40:00;;;;;;;0.17;0.13;;;10.80;1.00;;;;;;5037636;28;20050;-75
2022/11/06 09:42:44;;;;;;;0.22;0.22;;;10.90;1.00;;;;;;5037603;28;20041;-73
2022/11/06 09:45:16;;;;;;;0.30;0.28;;;11.10;1.00;;;;;;5035293;28;20476;-75
2022/11/06 09:47:48;;;;;;;0.10;0.10;;;11.40;99.90;;;;;;5018293;28;20053;-75
2022/11/06 09:50:18;;;;;;;5.65;1.35;;;11.50;99.90;;;;;;5034411;28;20060;-75
2022/11/06 09:53:03;;;;;;;0.00;0.00;;;11.80;99.90;;;;;;5033766;28;20056;-74
2022/11/06 09:55:41;;;;;;;0.00;0.00;;;11.80;1.00;;;;;;5032032;28;20103;-75
2022/11/06 09:58:19;;;;;;;0.00;0.00;;;11.90;99.90;;;;;;5036006;28;20065;-75
2022/11/06 10:00:44;;;;;;;0.10;0.10;;;11.90;1.00;;;;;;5035018;28;20033;-74
2022/11/06 10:03:20;;;;;;;0.25;0.25;;;12.10;99.90;;;;;;5033435;28;20045;-75
2022/11/06 10:05:46;;;;;;;0.22;0.22;;;12.00;1.00;;;;;;5034599;28;20129;-74
2022/11/06 10:08:18;;;;;;;0.17;0.15;;;11.80;99.90;;;;;;5034430;28;20606;-76
2022/11/06 10:11:05;;;;;;;0.15;0.15;;;11.80;99.90;;;;;;5033740;28;20049;-73
2022/11/06 10:13:48;;;;;;;;;;;11.70;1.00;;;;;;5038942;28;20062;-73
2022/11/06 10:16:40;;;;;;;0.38;0.38;;;11.70;1.00;;;;;;5035640;28;19947;-73
2022/11/06 10:19:34;;;;;;;0.32;0.30;;;11.90;99.90;;;;;;5038987;28;20593;-75
2022/11/06 10:22:06;;;;;;;0.00;0.00;;;12.00;99.90;;;;;;5033431;28;20053;-74
2022/11/06 10:24:32;;;;;;;0.13;0.13;;;12.20;47.50;;;;;;5033140;28;20053;-74
2022/11/06 10:26:58;;;;;;;0.00;0.00;;;12.20;99.90;;;;;;5026945;28;20127;-74
2022/11/06 10:29:43;;;;;;;0.22;0.20;;;12.20;99.90;;;;;;5054341;28;20041;-74
2022/11/06 10:32:40;;;;;;;0.00;0.00;;;12.10;59.80;;;;;;5044058;28;20098;-75
2022/11/06 10:35:14;;;;;;;0.17;0.15;;;12.00;1.00;;;;;;5045054;28;20756;-76
2022/11/06 10:37:46;;;;;;;0.45;0.30;;;12.10;99.90;;;;;;5039397;28;20574;-74
2022/11/06 10:40:22;;;;;;;0.17;0.10;;;12.20;1.00;;;;;;5044080;28;20120;-74
2022/11/06 10:43:14;;;;;;;0.88;0.75;;;12.70;99.90;;;;;;5051117;28;20345;-75
2022/11/06 10:45:45;;;;;;;0.00;0.00;;;12.20;1.60;;;;;;5039748;28;20053;-75
2022/11/06 10:48:25;;;;;;;1.30;0.40;;;12.30;1.00;;;;;;5050358;28;20092;-74
2022/11/06 10:51:00;;;;;;;0.35;0.13;;;12.40;1.00;;;;;;5049990;28;20456;-75
2022/11/06 10:53:47;;;;;;;0.45;0.43;;;12.40;51.60;;;;;;5050658;28;20559;-76
2022/11/06 10:56:34;;;;;;;1.42;0.47;;;12.20;67.50;;;;;;5039246;28;20118;-77
2022/11/06 10:58:59;;;;;;;0.15;0.10;;;11.90;99.90;;;;;;5045758;28;20049;-77
2022/11/06 11:01:25;;;;;;;3.65;0.63;;;11.80;42.60;;;;;;5039533;28;20106;-74
2022/11/06 11:03:54;;;;;;;0.00;0.00;;;11.70;99.90;;;;;;5047984;28;20033;-76
2022/11/06 11:06:19;;;;;;;0.05;0.05;;;11.80;99.90;;;;;;5043025;28;20033;-77
2022/11/06 11:08:49;;;;;;;1.38;0.75;;;11.80;99.90;;;;;;5047292;28;20159;-75
2022/11/06 11:11:21;;;;;;;0.00;0.00;;;11.80;1.00;;;;;;5043292;28;20050;-76
2022/11/06 11:13:49;;;;;;;0.20;0.20;;;11.80;99.90;;;;;;5046944;28;20055;-76
2022/11/06 11:16:21;;;;;;;0.03;0.03;;;11.70;1.00;;;;;;5044423;28;20064;-74
2022/11/06 11:18:48;;;;;;;0.10;0.10;;;11.70;99.90;;;;;;5025766;28;20048;-76
2022/11/06 11:21:29;;;;;;;0.00;0.00;;;11.70;99.90;;;;;;5043958;28;20115;-75
2022/11/06 11:24:00;;;;;;;0.13;0.08;;;11.60;99.90;;;;;;5046601;28;20068;-75
2022/11/06 11:26:28;;;;;;;0.22;0.22;;;11.60;1.00;;;;;;5045315;28;20045;-76
2022/11/06 11:28:56;;;;;;;0.03;0.03;;;11.60;1.00;;;;;;5043814;28;20072;-75
2022/11/06 11:31:33;;;;;;;0.00;0.00;;;11.40;1.00;;;;;;5040148;28;20072;-74
2022/11/06 11:34:02;;;;;;;0.00;0.00;;;11.30;48.90;;;;;;5038120;28;20052;-75
2022/11/06 11:37:01;;;;;;;0.00;0.00;;;11.30;52.00;;;;;;5049380;28;20049;-75
2022/11/06 11:39:31;;;;;;;0.32;0.32;;;11.20;84.00;;;;;;5053523;28;20338;-76
2022/11/06 11:42:15;;;;;;;0.63;0.22;;;11.20;93.20;;;;;;5047149;28;20077;-76
2022/11/06 11:44:46;;;;;;;0.00;0.00;;;11.20;71.00;;;;;;5045469;28;20095;-75
2022/11/06 11:47:23;;;;;;;0.52;0.52;;;11.20;58.30;;;;;;5043389;28;20051;-75
2022/11/06 11:50:18;;;;;;;2.08;0.85;;;11.30;22.90;;;;;;5056989;28;20054;-76
2022/11/06 11:52:51;;;;;;;0.00;0.00;;;10.90;66.10;;;;;;5051898;28;20053;-76
2022/11/06 11:55:20;;;;;;;0.20;0.17;;;11.20;98.20;;;;;;5060236;28;20085;-75
2022/11/06 11:57:51;;;;;;;0.00;0.00;;;11.20;99.90;;;;;;5034773;28;20148;-75
2022/11/06 12:00:20;;;;;;;0.05;0.05;;;11.20;99.90;;;;;;5051680;28;20125;-76
2022/11/06 12:03:02;;;;;;;0.10;0.10;;;11.30;99.90;;;;;;5044309;28;20101;-74
2022/11/06 12:05:33;;;;;;;0.03;0.03;;;11.40;99.90;;;;;;5048575;28;20036;-75
2022/11/06 12:08:00;;;;;;;0.00;0.00;;;11.50;99.90;;;;;;5052161;28;20045;-76
2022/11/06 12:10:41;;;;;;;0.00;0.00;;;11.60;93.80;;;;;;5050754;28;20033;-76
2022/11/06 12:13:22;;;;;;;5.75;1.98;;;11.60;99.90;;;;;;5024020;28;20133;-74
2022/11/06 12:16:07;;;;;;;0.00;0.00;;;11.80;1.00;;;;;;5041198;28;20049;-74
2022/11/06 12:18:41;;;;;;;0.00;0.00;;;11.80;1.00;;;;;;5039463;28;20056;-74
2022/11/06 12:21:10;;;;;;;0.00;0.00;;;11.90;1.00;;;;;;5038311;28;20206;-75
2022/11/06 12:23:50;;;;;;;0.15;0.15;;;12.00;1.00;;;;;;5020656;28;20041;-75
2022/11/06 12:26:34;;;;;;;1.10;0.65;;;12.00;1.00;;;;;;5040481;28;20103;-76
2022/11/06 12:29:17;;;;;;;0.43;0.38;;;12.30;99.90;;;;;;5039708;28;20132;-74
2022/11/06 12:32:20;;;;;;;0.00;0.00;;;12.50;99.90;;;;;;5041222;28;20045;-73
2022/11/06 12:35:04;;;;;;;0.17;0.17;;;12.80;99.90;;;;;;5038001;28;20063;-75
2022/11/06 12:38:08;;;;;;;0.00;0.00;;;13.20;1.00;;;;;;5040808;28;20053;-75
2022/11/06 12:40:39;;;;;;;0.10;0.10;;;13.40;99.90;;;;;;5040328;28;20411;-73
2022/11/06 12:43:11;;;;;;;0.28;0.15;;;13.60;99.90;;;;;;5040032;28;20588;-75
2022/11/06 12:46:01;;;;;;;0.00;0.00;;;13.70;99.90;;;;;;5039411;28;20037;-75
2022/11/06 12:48:41;;;;;;;0.60;0.60;;;13.70;99.90;;;;;;5038591;28;20037;-74
2022/11/06 12:51:40;;;;;;;0.03;0.03;;;13.80;99.90;;;;;;5042164;28;20119;-73
2022/11/06 12:54:44;;;;;;;0.00;0.00;;;13.70;99.90;;;;;;5049443;28;20052;-75
2022/11/06 12:57:28;;;;;;;0.28;0.22;;;13.60;99.90;;;;;;5060029;28;20056;-76
2022/11/06 13:00:14;;;;;;;0.30;0.20;;;13.50;99.90;;;;;;5058686;28;20521;-75
2022/11/06 13:03:02;;;;;;;0.10;0.10;;;13.30;99.90;;;;;;5031192;28;20053;-73
2022/11/06 13:05:34;;;;;;;0.00;0.00;;;13.20;1.00;;;;;;5039918;28;20099;-75
2022/11/06 13:08:15;;;;;;;0.00;0.00;;;13.00;40.50;;;;;;5040468;28;20493;-73
2022/11/06 13:11:14;;;;;;;0.22;0.20;;;12.80;99.90;;;;;;5037122;28;20049;-76
2022/11/06 13:13:57;;;;;;;0.15;0.15;;;12.70;99.90;;;;;;5037604;28;20045;-74
2022/11/06 13:16:44;;;;;;;0.15;0.15;;;12.80;5.90;;;;;;5037937;28;20060;-75
2022/11/06 13:19:13;;;;;;;0.00;0.00;;;12.70;99.90;;;;;;5037225;28;20045;-73
2022/11/06 13:22:02;;;;;;;0.38;0.20;;;12.60;99.90;;;;;;5039071;28;20041;-75
2022/11/06 13:24:33;;;;;;;0.00;0.00;;;12.60;99.90;;;;;;5037762;28;20045;-73
2022/11/06 13:27:30;;;;;;;0.52;0.38;;;12.50;99.90;;;;;;5040455;28;20140;-76
2022/11/06 13:30:19;;;;;;;0.00;0.00;;;12.60;99.90;;;;;;5039710;28;20045;-74
2022/11/06 13:33:00;;;;;;;0.38;0.30;;;12.50;99.90;;;;;;5037762;28;20084;-74
2022/11/06 13:35:26;;;;;;;0.13;0.13;;;12.50;99.90;;;;;;5022684;28;20044;-75
2022/11/06 13:37:54;;;;;;;1.20;1.08;;;12.50;99.90;;;;;;5038476;28;20064;-75